Time;durP1;ratioP1;P1;durP2;ratioP2;P2;SDS_P1;SDS_P2;PMS_P1;PMS_P2;Temp;Humidity;BMP_temperature;BMP_pressure;BME280_temperature;BME280_humidity;BME280_pressure;Samples;Min_cycle;Max_cycle;Signal;HPM_P1;HPM_P2
2023/08/28 00:01:29;;;;;;;3.67;2.70;;;;;;;15.05;100.00;101181.34;5069088;28;20028;-64
2023/08/28 00:03:55;;;;;;;3.63;2.88;;;;;;;15.03;100.00;101178.78;5050971;28;20017;-64
2023/08/28 00:06:20;;;;;;;7.88;2.90;;;;;;;15.02;100.00;101181.53;5088740;28;20624;-62
2023/08/28 00:08:45;;;;;;;5.53;3.03;;;;;;;15.01;100.00;101185.97;5086863;28;20032;-61
2023/08/28 00:11:11;;;;;;;5.72;3.10;;;;;;;15.05;100.00;101180.53;5087955;28;20111;-65
2023/08/28 00:13:36;;;;;;;6.78;2.95;;;;;;;15.09;100.00;101169.69;5088162;28;20024;-65
2023/08/28 00:16:02;;;;;;;4.43;2.95;;;;;;;15.14;100.00;101170.31;5071034;28;20367;-63
2023/08/28 00:18:27;;;;;;;4.85;2.70;;;;;;;15.23;100.00;101184.09;5088313;28;20032;-60
2023/08/28 00:20:54;;;;;;;5.28;2.60;;;;;;;15.21;100.00;101172.69;5089392;28;20028;-64
2023/08/28 00:23:20;;;;;;;7.97;2.92;;;;;;;15.24;100.00;101175.19;5087846;28;20024;-62
2023/08/28 00:25:45;;;;;;;6.47;3.17;;;;;;;15.25;100.00;101174.25;5088880;28;20031;-64
2023/08/28 00:28:11;;;;;;;4.22;2.65;;;;;;;15.27;100.00;101170.56;5088207;28;20401;-63
2023/08/28 00:30:36;;;;;;;3.40;2.50;;;;;;;15.28;100.00;101167.00;5070215;28;20024;-65
2023/08/28 00:33:01;;;;;;;3.20;2.53;;;;;;;15.30;100.00;101180.19;5103603;28;20085;-63
2023/08/28 00:35:27;;;;;;;2.50;2.30;;;;;;;15.31;100.00;101176.59;5088451;28;20024;-61
2023/08/28 00:37:52;;;;;;;4.65;2.30;;;;;;;15.31;100.00;101178.38;5088005;28;20043;-59
2023/08/28 00:40:17;;;;;;;3.63;2.40;;;;;;;15.27;100.00;101185.66;5048571;28;20044;-64
2023/08/28 00:42:43;;;;;;;3.28;2.45;;;;;;;15.26;100.00;101194.56;5048083;28;20087;-61
2023/08/28 00:45:09;;;;;;;3.10;2.15;;;;;;;15.18;100.00;101188.75;5047982;28;20071;-65
2023/08/28 00:47:34;;;;;;;3.60;2.22;;;;;;;15.13;100.00;101189.84;5047550;28;20013;-64
2023/08/28 00:50:00;;;;;;;2.47;2.03;;;;;;;15.04;100.00;101187.59;5048226;28;20029;-64
2023/08/28 00:52:25;;;;;;;5.13;2.33;;;;;;;14.97;100.00;101181.75;5045722;28;20021;-63
2023/08/28 00:54:51;;;;;;;2.95;2.17;;;;;;;14.92;100.00;101175.78;5048542;28;20029;-62
2023/08/28 00:57:17;;;;;;;4.75;2.08;;;;;;;14.84;100.00;101176.13;5047253;28;20028;-61
2023/08/28 00:59:43;;;;;;;3.10;2.22;;;;;;;14.85;100.00;101169.91;5047747;28;20580;-64
2023/08/28 01:02:09;;;;;;;2.75;2.03;;;;;;;14.88;100.00;101174.22;5045474;28;20018;-64
2023/08/28 01:04:34;;;;;;;9.98;2.60;;;;;;;14.93;100.00;101163.38;5047893;28;20452;-64
2023/08/28 01:07:25;;;;;;;5.70;2.75;;;;;;;14.93;100.00;101164.22;5047760;28;20112;-64
2023/08/28 01:10:03;;;;;;;5.15;2.40;;;;;;;14.93;100.00;101176.66;5135152;22;20058;-60
2023/08/28 01:12:50;;;;;;;3.60;2.22;;;;;;;14.90;100.00;101180.31;5018460;28;20028;-60
2023/08/28 01:15:20;;;;;;;3.88;2.25;;;;;;;14.85;100.00;101180.53;5028373;28;20032;-60
2023/08/28 01:17:49;;;;;;;2.20;1.90;;;;;;;14.80;100.00;101182.53;5025966;28;20100;-60
2023/08/28 01:20:15;;;;;;;4.47;2.28;;;;;;;14.76;100.00;101172.97;5027858;28;20025;-60
2023/08/28 01:22:59;;;;;;;3.60;2.03;;;;;;;14.67;100.00;101176.91;5025067;28;20041;-60
2023/08/28 01:25:30;;;;;;;3.42;2.13;;;;;;;14.65;100.00;101168.13;5027513;28;20029;-59
2023/08/28 01:27:56;;;;;;;5.93;2.45;;;;;;;14.63;100.00;101167.38;5059891;28;20415;-60
2023/08/28 01:30:21;;;;;;;7.82;2.40;;;;;;;14.61;100.00;101170.09;5059561;28;20498;-61
2023/08/28 01:32:47;;;;;;;3.55;2.10;;;;;;;14.55;100.00;101167.72;5058781;28;20037;-60
2023/08/28 01:35:16;;;;;;;3.22;1.98;;;;;;;14.51;100.00;101169.63;5028107;28;20030;-61
2023/08/28 01:38:00;;;;;;;;;;;;;;;14.47;100.00;101165.41;5027198;28;20079;-60
2023/08/28 01:40:30;;;;;;;8.30;2.35;;;;;;;14.42;100.00;101161.25;5026470;28;19917;-61
2023/08/28 01:42:56;;;;;;;2.42;2.22;;;;;;;14.39;100.00;101162.25;5026648;28;20029;-58
2023/08/28 01:45:21;;;;;;;4.85;2.15;;;;;;;14.33;100.00;101152.75;5059356;28;20118;-63
2023/08/28 01:47:47;;;;;;;9.32;2.58;;;;;;;14.26;100.00;101156.63;5028303;28;20025;-61
2023/08/28 01:50:13;;;;;;;2.67;2.47;;;;;;;14.29;100.00;101145.88;5058866;28;20422;-60
2023/08/28 01:52:38;;;;;;;5.63;2.63;;;;;;;14.27;100.00;101153.06;5025873;28;20104;-62
2023/08/28 01:55:04;;;;;;;3.22;2.53;;;;;;;14.27;100.00;101147.75;5027181;28;20356;-59
2023/08/28 01:57:29;;;;;;;3.72;2.33;;;;;;;14.26;100.00;101146.00;5026823;28;20021;-61
2023/08/28 01:59:55;;;;;;;3.15;2.38;;;;;;;14.31;100.00;101151.97;5026031;28;20079;-60
2023/08/28 02:02:20;;;;;;;4.43;2.42;;;;;;;14.32;100.00;101153.69;5044536;28;20039;-59
2023/08/28 02:04:46;;;;;;;4.90;2.53;;;;;;;14.32;100.00;101156.34;5051059;28;20044;-58
2023/08/28 02:07:11;;;;;;;7.50;2.88;;;;;;;14.28;100.00;101154.78;5050067;28;20025;-59
2023/08/28 02:09:36;;;;;;;6.15;2.30;;;;;;;14.30;100.00;101157.34;5049736;28;20041;-60
2023/08/28 02:12:02;;;;;;;3.40;2.15;;;;;;;14.25;100.00;101150.47;5051322;28;20024;-61
2023/08/28 02:14:27;;;;;;;3.47;2.38;;;;;;;14.22;100.00;101168.28;5050240;28;20193;-60
2023/08/28 02:16:53;;;;;;;3.13;2.25;;;;;;;14.14;100.00;101166.84;5051033;28;20135;-58
2023/08/28 02:19:18;;;;;;;6.90;2.53;;;;;;;14.18;100.00;101158.75;5051576;28;20111;-61
2023/08/28 02:21:43;;;;;;;4.78;2.53;;;;;;;14.22;100.00;101168.28;5051047;28;20025;-58
2023/08/28 02:24:09;;;;;;;5.07;2.65;;;;;;;14.24;100.00;101161.13;5049971;28;20044;-59
2023/08/28 02:26:34;;;;;;;2.92;2.38;;;;;;;14.24;100.00;101161.97;5050214;28;20617;-60
2023/08/28 02:28:59;;;;;;;3.72;2.53;;;;;;;14.17;100.00;101157.03;5050447;28;20036;-60
2023/08/28 02:31:25;;;;;;;5.05;2.47;;;;;;;14.12;100.00;101144.84;5050809;28;20100;-58
2023/08/28 02:33:50;;;;;;;2.90;2.63;;;;;;;14.04;100.00;101136.38;5049890;28;20171;-61
2023/08/28 02:36:15;;;;;;;2.50;2.30;;;;;;;13.96;100.00;101130.53;5051219;28;20155;-60
2023/08/28 02:38:41;;;;;;;3.88;2.78;;;;;;;13.87;100.00;101130.03;5049078;28;20383;-60
2023/08/28 02:41:07;;;;;;;4.28;2.85;;;;;;;13.81;100.00;101130.28;5051661;28;20033;-60
2023/08/28 02:43:33;;;;;;;3.08;2.78;;;;;;;13.76;100.00;101122.53;5050994;28;20100;-60
2023/08/28 02:45:58;;;;;;;5.68;2.92;;;;;;;13.73;100.00;101127.13;5033066;28;20033;-60
2023/08/28 02:48:24;;;;;;;3.92;2.90;;;;;;;13.68;100.00;101129.94;5050608;28;20031;-60
2023/08/28 02:50:49;;;;;;;3.15;2.85;;;;;;;13.65;100.00;101132.72;5050926;28;20036;-60
2023/08/28 02:53:15;;;;;;;8.48;3.45;;;;;;;13.67;100.00;101133.53;5049511;28;20029;-61
2023/08/28 02:55:41;;;;;;;4.78;3.40;;;;;;;13.70;100.00;101133.38;5049344;28;20055;-60
2023/08/28 02:58:06;;;;;;;8.27;3.55;;;;;;;13.72;100.00;101128.00;5049670;28;20036;-61
2023/08/28 03:00:33;;;;;;;7.28;3.90;;;;;;;13.72;100.00;101122.72;5049655;28;20017;-61
2023/08/28 03:02:58;;;;;;;10.48;3.63;;;;;;;13.73;100.00;101120.00;5049659;28;20037;-60
2023/08/28 03:05:23;;;;;;;4.95;3.50;;;;;;;13.76;100.00;101130.47;5050290;28;20036;-59
2023/08/28 03:07:49;;;;;;;5.30;3.88;;;;;;;13.76;100.00;101122.53;5049687;28;20061;-60
2023/08/28 03:10:14;;;;;;;5.80;3.85;;;;;;;13.81;100.00;101132.94;5049306;28;20048;-60
2023/08/28 03:12:40;;;;;;;6.55;3.97;;;;;;;13.86;100.00;101115.06;5049261;28;20089;-61
2023/08/28 03:15:05;;;;;;;5.95;3.45;;;;;;;13.93;100.00;101115.63;5049525;28;20063;-61
2023/08/28 03:17:31;;;;;;;6.65;3.97;;;;;;;13.99;100.00;101118.03;5049884;28;20025;-59
2023/08/28 03:19:56;;;;;;;7.35;3.95;;;;;;;14.04;100.00;101125.78;5049874;28;20051;-62
2023/08/28 03:22:21;;;;;;;8.88;3.67;;;;;;;14.07;100.00;101130.06;5049754;28;20024;-59
2023/08/28 03:24:47;;;;;;;7.70;3.95;;;;;;;14.10;100.00;101136.09;5050684;28;20027;-60
2023/08/28 03:27:12;;;;;;;6.00;3.95;;;;;;;14.17;100.00;101144.63;5050109;28;20104;-61
2023/08/28 03:29:38;;;;;;;5.13;4.00;;;;;;;14.22;100.00;101141.78;5049458;28;20103;-56
2023/08/28 03:32:04;;;;;;;4.50;4.10;;;;;;;14.27;100.00;101145.09;5050149;28;20096;-59
2023/08/28 03:34:30;;;;;;;6.03;4.00;;;;;;;14.36;100.00;101151.78;5049267;28;20025;-58
2023/08/28 03:36:55;;;;;;;6.63;4.35;;;;;;;14.45;100.00;101154.00;5048764;28;20486;-60
2023/08/28 03:39:20;;;;;;;8.02;4.72;;;;;;;14.48;100.00;101156.50;5050537;28;20032;-62
2023/08/28 03:41:46;;;;;;;5.55;4.15;;;;;;;14.54;100.00;101158.00;5049941;28;20021;-61
2023/08/28 03:44:11;;;;;;;9.23;4.25;;;;;;;14.57;100.00;101160.53;5050007;28;20042;-61
2023/08/28 03:46:37;;;;;;;6.18;3.85;;;;;;;14.59;100.00;101163.13;5049278;28;20087;-60
2023/08/28 03:49:04;;;;;;;5.10;4.00;;;;;;;14.59;100.00;101163.97;5049886;28;20475;-62
2023/08/28 03:51:29;;;;;;;6.65;4.25;;;;;;;14.57;100.00;101162.34;5031561;28;20036;-61
2023/08/28 03:53:54;;;;;;;5.15;3.58;;;;;;;14.55;100.00;101161.53;5048973;28;20033;-62
2023/08/28 03:56:20;;;;;;;5.40;4.10;;;;;;;14.50;100.00;101162.63;5050247;28;20060;-61
2023/08/28 03:58:45;;;;;;;5.28;3.95;;;;;;;14.48;100.00;101169.75;5049015;28;20033;-59
2023/08/28 04:01:11;;;;;;;6.85;4.20;;;;;;;14.44;100.00;101176.16;5049176;28;20581;-58
2023/08/28 04:03:36;;;;;;;4.53;3.65;;;;;;;14.43;100.00;101184.16;5049274;28;20017;-60
2023/08/28 04:06:01;;;;;;;8.07;3.88;;;;;;;14.43;100.00;101184.16;5049362;28;20406;-62
2023/08/28 04:08:27;;;;;;;4.55;4.15;;;;;;;14.42;100.00;101179.81;5048495;28;20394;-61
2023/08/28 04:10:53;;;;;;;7.88;3.92;;;;;;;14.42;100.00;101182.44;5049768;28;20140;-61
2023/08/28 04:13:18;;;;;;;7.57;4.55;;;;;;;14.40;100.00;101183.38;5050344;28;20538;-60
2023/08/28 04:15:43;;;;;;;14.73;4.50;;;;;;;14.39;100.00;101192.25;5048309;28;20059;-56
2023/08/28 04:18:09;;;;;;;4.15;3.75;;;;;;;14.40;100.00;101186.03;5048563;28;20025;-61
2023/08/28 04:20:34;;;;;;;6.63;4.50;;;;;;;14.39;100.00;101181.66;5048290;28;20045;-60
2023/08/28 04:23:00;;;;;;;4.22;3.83;;;;;;;14.40;100.00;101196.66;5047319;28;20033;-61
2023/08/28 04:25:28;;;;;;;5.22;3.70;;;;;;;14.44;100.00;101197.34;5031010;28;20021;-60
2023/08/28 04:27:54;;;;;;;5.88;4.10;;;;;;;14.42;100.00;101201.00;5049118;28;20045;-60
2023/08/28 04:30:19;;;;;;;7.70;4.00;;;;;;;14.45;100.00;101203.53;5049345;28;20060;-61
2023/08/28 04:32:45;;;;;;;4.15;3.75;;;;;;;14.42;100.00;101199.19;5049305;28;20025;-60
2023/08/28 04:35:10;;;;;;;4.13;3.63;;;;;;;14.45;100.00;101203.53;5048744;28;20535;-58
2023/08/28 04:37:36;;;;;;;4.10;3.70;;;;;;;14.43;100.00;101210.69;5048032;28;20067;-61
2023/08/28 04:40:01;;;;;;;5.15;3.28;;;;;;;14.44;100.00;101204.44;5048592;28;20033;-61
2023/08/28 04:42:26;;;;;;;5.45;3.55;;;;;;;14.44;100.00;101207.09;5048855;28;20032;-59
2023/08/28 04:44:52;;;;;;;4.53;3.70;;;;;;;14.42;100.00;101208.97;5050114;28;20570;-59
2023/08/28 04:47:17;;;;;;;6.30;3.72;;;;;;;14.40;100.00;101214.31;5053294;28;20103;-61
2023/08/28 04:49:42;;;;;;;6.05;3.80;;;;;;;14.39;100.00;101209.97;5048322;28;20486;-60
2023/08/28 04:52:08;;;;;;;8.55;4.30;;;;;;;14.42;100.00;101224.88;5028160;28;20047;-58
2023/08/28 04:54:34;;;;;;;5.20;3.60;;;;;;;14.46;100.00;101227.31;5045929;28;20032;-59
2023/08/28 04:56:59;;;;;;;12.23;3.80;;;;;;;14.57;100.00;101229.47;5048093;28;20032;-61
2023/08/28 04:59:25;;;;;;;5.10;3.70;;;;;;;14.62;100.00;101227.50;5048301;28;20041;-58
2023/08/28 05:01:50;;;;;;;5.18;4.30;;;;;;;14.71;100.00;101228.88;5047737;28;20032;-59
2023/08/28 05:04:16;;;;;;;9.82;4.50;;;;;;;14.71;100.00;101225.34;5046864;28;20029;-61
2023/08/28 05:06:41;;;;;;;7.97;4.60;;;;;;;14.75;100.00;101232.25;5028220;28;20028;-60
2023/08/28 05:09:06;;;;;;;5.88;4.57;;;;;;;14.78;100.00;101237.44;5053272;28;20174;-61
2023/08/28 05:11:32;;;;;;;8.90;4.35;;;;;;;14.87;100.00;101242.31;5067126;28;20325;-61
2023/08/28 05:13:57;;;;;;;7.40;4.47;;;;;;;14.93;100.00;101246.47;5066313;28;20017;-59
2023/08/28 05:16:23;;;;;;;5.65;4.10;;;;;;;15.02;100.00;101246.06;5064012;28;20063;-60
2023/08/28 05:18:48;;;;;;;8.38;4.65;;;;;;;15.10;100.00;101243.06;5047248;28;20029;-61
2023/08/28 05:21:14;;;;;;;9.00;4.80;;;;;;;15.16;100.00;101241.91;5046295;28;20443;-59
2023/08/28 05:23:39;;;;;;;6.60;4.07;;;;;;;15.26;100.00;101243.19;5046001;28;20032;-60
2023/08/28 05:26:04;;;;;;;10.52;4.65;;;;;;;15.33;100.00;101249.09;5032386;28;20051;-59
2023/08/28 05:28:31;;;;;;;6.85;4.55;;;;;;;15.37;100.00;101239.16;5066651;28;20031;-60
2023/08/28 05:30:57;;;;;;;13.25;4.90;;;;;;;15.45;100.00;101244.09;5067269;28;20032;-61
2023/08/28 05:33:23;;;;;;;11.30;4.75;;;;;;;15.39;100.00;101238.16;5061280;28;20032;-59
2023/08/28 05:35:48;;;;;;;6.60;4.65;;;;;;;15.53;100.00;101239.28;5059512;28;20025;-61
2023/08/28 05:38:13;;;;;;;7.35;4.07;;;;;;;15.60;100.00;101240.72;5066389;28;20052;-60
2023/08/28 05:40:39;;;;;;;5.25;3.85;;;;;;;15.65;100.00;101235.16;5048844;28;20029;-58
2023/08/28 05:43:04;;;;;;;4.22;3.72;;;;;;;15.76;100.00;101231.97;5051755;28;20029;-61
2023/08/28 05:45:30;;;;;;;6.00;4.10;;;;;;;15.87;100.00;101236.78;5054922;28;20588;-60
2023/08/28 05:47:55;;;;;;;6.00;4.10;;;;;;;15.82;100.00;101234.34;5066239;28;20020;-60
2023/08/28 05:50:21;;;;;;;6.00;4.00;;;;;;;15.96;100.00;101240.75;5058166;28;20025;-61
2023/08/28 05:52:47;;;;;;;3.92;3.22;;;;;;;16.05;100.00;101243.00;5047773;28;20184;-59
2023/08/28 05:55:12;;;;;;;4.93;3.28;;;;;;;16.06;100.00;101242.03;5059079;28;20039;-61
2023/08/28 05:57:38;;;;;;;8.48;3.95;;;;;;;16.10;100.00;101248.06;5065642;28;20099;-61
2023/08/28 06:00:04;;;;;;;8.32;3.53;;;;;;;16.11;100.00;101237.38;5066394;28;20543;-60
2023/08/28 06:02:29;;;;;;;10.25;3.42;;;;;;;16.19;100.00;101228.13;5048320;28;20597;-60
2023/08/28 06:04:55;;;;;;;8.68;3.65;;;;;;;16.28;100.00;101227.63;5046703;28;20112;-58
2023/08/28 06:07:21;;;;;;;6.15;2.90;;;;;;;16.33;100.00;101224.75;5045147;28;20017;-59
2023/08/28 06:09:46;;;;;;;5.80;3.25;;;;;;;16.34;100.00;101224.66;5064845;28;20045;-59
2023/08/28 06:12:11;;;;;;;6.15;3.28;;;;;;;16.36;100.00;101238.75;5052972;28;20035;-60
2023/08/28 06:14:37;;;;;;;7.97;3.30;;;;;;;16.38;100.00;101220.91;5044772;28;20464;-61
2023/08/28 06:17:05;;;;;;;3.30;2.95;;;;;;;16.39;100.00;101224.44;5045373;28;20040;-61
2023/08/28 06:19:31;;;;;;;3.60;2.97;;;;;;;16.44;100.00;101229.50;5033084;28;20037;-61
2023/08/28 06:21:56;;;;;;;4.55;2.95;;;;;;;16.52;100.00;101232.59;5012039;28;20018;-61
2023/08/28 06:24:22;;;;;;;7.13;2.85;;;;;;;16.57;100.00;101227.91;5025851;28;20490;-61
2023/08/28 06:26:47;;;;;;;6.53;3.22;;;;;;;16.63;100.00;101237.38;5043019;28;20044;-61
2023/08/28 06:29:13;;;;;;;4.18;3.05;;;;;;;16.77;100.00;101232.16;5045470;28;20029;-62
2023/08/28 06:31:38;;;;;;;5.80;2.65;;;;;;;16.75;100.00;101231.41;5044366;28;20127;-62
2023/08/28 06:34:04;;;;;;;6.35;2.95;;;;;;;16.77;100.00;101226.00;5046098;28;20033;-60
2023/08/28 06:36:30;;;;;;;8.50;3.25;;;;;;;16.83;100.00;101231.00;5044234;28;20030;-61
2023/08/28 06:38:56;;;;;;;7.90;2.90;;;;;;;16.89;100.00;101233.28;5045505;28;20061;-60
2023/08/28 06:41:21;;;;;;;5.90;2.97;;;;;;;16.95;100.00;101228.59;5058266;28;20056;-59
2023/08/28 06:43:47;;;;;;;6.10;3.20;;;;;;;16.95;100.00;101233.91;5044800;28;20041;-60
2023/08/28 06:46:13;;;;;;;5.43;3.15;;;;;;;16.93;100.00;101242.84;5039422;28;20557;-61
2023/08/28 06:48:38;;;;;;;5.57;3.10;;;;;;;17.03;100.00;101237.00;5047611;28;20025;-58
2023/08/28 06:51:04;;;;;;;7.85;3.20;;;;;;;17.13;100.00;101238.25;5049488;28;20498;-60
2023/08/28 06:53:30;;;;;;;11.75;3.13;;;;;;;17.01;100.00;101236.25;5047137;28;20112;-60
2023/08/28 06:55:56;;;;;;;4.97;3.17;;;;;;;17.00;100.00;101238.03;5046293;28;20391;-59
2023/08/28 06:58:21;;;;;;;6.07;3.17;;;;;;;16.92;100.00;101243.78;5044191;28;20025;-60
2023/08/28 07:00:47;;;;;;;5.65;3.28;;;;;;;17.06;100.00;101236.84;5045077;28;20528;-59
2023/08/28 07:03:12;;;;;;;4.13;3.45;;;;;;;17.16;100.00;101243.41;5047682;28;20041;-62
2023/08/28 07:05:39;;;;;;;3.30;3.00;;;;;;;17.24;100.00;101250.09;5047683;28;20013;-61
2023/08/28 07:08:04;;;;;;;3.63;3.30;;;;;;;17.33;100.00;101244.25;5045931;28;20024;-61
2023/08/28 07:10:29;;;;;;;5.60;3.70;;;;;;;17.39;100.00;101253.72;5047497;28;20415;-60
2023/08/28 07:12:55;;;;;;;8.25;3.40;;;;;;;17.41;100.00;101258.03;5050519;28;20078;-59
2023/08/28 07:15:20;;;;;;;4.30;3.13;;;;;;;17.54;100.00;101254.66;5067870;28;20077;-61
2023/08/28 07:17:46;;;;;;;3.63;2.83;;;;;;;17.58;100.00;101258.00;5062056;28;20029;-59
2023/08/28 07:20:11;;;;;;;5.05;2.90;;;;;;;17.58;100.00;101252.69;5040906;28;20510;-61
2023/08/28 07:22:37;;;;;;;6.60;3.15;;;;;;;17.58;100.00;101256.19;5046200;28;20029;-60
2023/08/28 07:25:02;;;;;;;6.20;3.25;;;;;;;17.57;100.00;101251.81;5045546;28;20021;-60
2023/08/28 07:27:28;;;;;;;5.32;3.20;;;;;;;17.61;100.00;101253.34;5048197;28;20570;-59
2023/08/28 07:29:53;;;;;;;6.63;2.90;;;;;;;17.71;100.00;101248.38;5047727;28;20455;-61
2023/08/28 07:32:18;;;;;;;4.70;3.00;;;;;;;17.82;100.00;101255.72;5048484;28;20039;-61
2023/08/28 07:34:44;;;;;;;4.40;2.58;;;;;;;18.01;100.00;101254.66;5045267;28;20507;-59
2023/08/28 07:37:09;;;;;;;2.15;1.92;;;;;;;18.13;100.00;101253.09;5047636;28;20021;-62
2023/08/28 07:39:34;;;;;;;4.55;1.92;;;;;;;18.17;100.00;101259.97;5048063;28;20036;-60
2023/08/28 07:42:00;;;;;;;3.28;2.13;;;;;;;18.13;100.00;101255.75;5047319;28;20100;-59
2023/08/28 07:44:25;;;;;;;2.85;1.92;;;;;;;18.30;100.00;101255.59;5049080;28;20025;-59
2023/08/28 07:46:51;;;;;;;1.90;1.70;;;;;;;18.27;100.00;101260.28;5048449;28;20033;-60
2023/08/28 07:49:17;;;;;;;7.45;1.70;;;;;;;18.38;100.00;101256.94;5047444;28;20036;-59
2023/08/28 07:51:43;;;;;;;4.18;1.98;;;;;;;18.58;100.00;101253.09;5045768;28;20029;-62
2023/08/28 07:54:08;;;;;;;5.30;1.60;;;;;;;18.54;100.00;101263.06;5048402;28;20021;-61
2023/08/28 07:56:33;;;;;;;3.53;1.50;;;;;;;18.50;100.00;101261.53;5030123;28;20025;-61
2023/08/28 07:58:59;;;;;;;6.03;1.52;;;;;;;18.70;100.00;101267.47;5047568;28;20029;-62
2023/08/28 08:01:24;;;;;;;3.17;1.10;;;;;;;18.88;100.00;101265.47;5046929;28;20028;-57
2023/08/28 08:03:49;;;;;;;4.13;1.02;;;;;;;19.12;100.00;101267.59;5047867;28;20066;-61
2023/08/28 08:06:16;;;;;;;2.28;1.50;;;;;;;19.27;100.00;101267.56;5045828;28;20033;-63
2023/08/28 08:08:44;;;;;;;2.72;1.38;;;;;;;19.60;100.00;101274.34;5047487;28;20040;-61
2023/08/28 08:11:09;;;;;;;5.30;1.58;;;;;;;19.77;100.00;101270.53;5047404;28;20053;-61
2023/08/28 08:13:34;;;;;;;3.08;1.35;;;;;;;19.98;100.00;101277.25;5045457;28;20052;-59
2023/08/28 08:16:00;;;;;;;4.22;1.20;;;;;;;20.19;100.00;101280.31;5047927;28;20025;-61
2023/08/28 08:18:25;;;;;;;3.97;0.98;;;;;;;20.26;100.00;101283.44;5047147;28;20092;-61
2023/08/28 08:20:51;;;;;;;2.92;1.30;;;;;;;20.01;100.00;101285.06;5047300;28;20029;-61
2023/08/28 08:23:16;;;;;;;2.45;1.00;;;;;;;20.09;100.00;101282.75;5046662;28;20025;-63
2023/08/28 08:25:41;;;;;;;2.60;1.00;;;;;;;20.08;100.00;101286.41;5047451;28;20160;-61
2023/08/28 08:28:07;;;;;;;4.05;0.80;;;;;;;20.06;100.00;101288.31;5047237;28;20033;-61
2023/08/28 08:30:32;;;;;;;1.40;0.70;;;;;;;20.14;100.00;101280.59;5046621;28;20112;-59
2023/08/28 08:32:58;;;;;;;1.88;0.90;;;;;;;20.02;100.00;101281.47;5029355;28;20025;-61
2023/08/28 08:35:23;;;;;;;3.33;1.00;;;;;;;19.92;100.00;101275.81;5046212;28;20067;-61
2023/08/28 08:37:52;;;;;;;1.27;0.73;;;;;;;19.48;100.00;101275.13;5046851;28;20084;-61
2023/08/28 08:40:18;;;;;;;4.03;0.95;;;;;;;19.48;100.00;101277.81;5045512;28;20421;-61
2023/08/28 08:42:44;;;;;;;2.30;0.80;;;;;;;19.70;100.00;101286.16;5046171;28;20025;-61
2023/08/28 08:45:10;;;;;;;1.95;0.98;;;;;;;19.43;100.00;101278.97;5046033;28;20391;-60
2023/08/28 08:47:35;;;;;;;1.23;1.05;;;;;;;19.55;100.00;101276.44;5046261;28;20028;-61
2023/08/28 08:50:03;;;;;;;2.88;1.05;;;;;;;19.48;100.00;101280.47;5027430;28;20025;-60
2023/08/28 08:52:28;;;;;;;2.30;0.93;;;;;;;19.63;100.00;101286.66;5045089;28;20017;-62
2023/08/28 08:55:09;;;;;;;4.95;1.10;;;;;;;19.59;100.00;101275.28;5027343;28;20051;-60
2023/08/28 08:57:42;;;;;;;1.33;0.98;;;;;;;19.59;100.00;101274.44;5028024;28;20052;-61
2023/08/28 09:00:14;;;;;;;4.25;1.00;;;;;;;19.61;100.00;101275.19;5044833;28;20029;-59
2023/08/28 09:02:41;;;;;;;4.13;1.02;;;;;;;19.67;100.00;101278.31;5045185;28;20032;-66
2023/08/28 09:05:06;;;;;;;3.13;1.10;;;;;;;19.65;100.00;101282.91;5044954;28;20506;-61
2023/08/28 09:07:33;;;;;;;6.63;1.38;;;;;;;19.70;100.00;101278.13;5043090;28;20139;-61
2023/08/28 09:09:59;;;;;;;3.50;1.17;;;;;;;19.82;100.00;101272.91;5026681;28;20033;-61
2023/08/28 09:12:24;;;;;;;3.03;0.90;;;;;;;20.09;100.00;101272.06;5041640;28;20039;-62
2023/08/28 09:14:50;;;;;;;3.42;0.98;;;;;;;20.27;100.00;101282.47;5044246;28;20049;-61
2023/08/28 09:17:15;;;;;;;0.60;0.60;;;;;;;20.67;100.00;101270.81;5046753;28;20029;-60
2023/08/28 09:19:43;;;;;;;2.00;0.75;;;;;;;20.70;98.56;101276.81;5036198;28;20117;-61
2023/08/28 09:22:10;;;;;;;0.75;0.70;;;;;;;20.75;94.29;101272.94;5038694;28;20028;-61
2023/08/28 09:24:36;;;;;;;1.05;0.63;;;;;;;20.92;93.97;101272.63;5045477;28;20025;-62
2023/08/28 09:27:03;;;;;;;1.52;0.90;;;;;;;21.37;88.10;101268.56;5044189;28;20021;-62
2023/08/28 09:29:28;;;;;;;1.17;0.70;;;;;;;21.12;91.54;101281.06;5045053;28;20013;-59
2023/08/28 09:32:02;;;;;;;2.33;0.63;;;;;;;21.21;87.69;101275.06;5045446;28;20051;-61
2023/08/28 09:34:38;;;;;;;2.20;0.70;;;;;;;20.95;90.46;101275.09;5044901;28;20039;-61
2023/08/28 09:37:09;;;;;;;5.55;0.73;;;;;;;20.89;92.66;101274.66;5046783;28;20490;-61
2023/08/28 09:39:35;;;;;;;0.93;0.77;;;;;;;21.25;89.91;101272.16;5045388;28;20028;-63
2023/08/28 09:42:04;;;;;;;4.25;0.77;;;;;;;21.36;90.24;101271.34;5010202;28;20467;-62
2023/08/28 09:44:34;;;;;;;1.42;0.70;;;;;;;21.82;85.25;101267.09;5044802;28;20036;-61
2023/08/28 09:46:59;;;;;;;1.13;0.80;;;;;;;21.96;87.15;101274.97;5043317;28;20036;-66
2023/08/28 09:49:25;;;;;;;3.20;0.90;;;;;;;22.32;82.93;101283.00;5045674;28;20403;-61
2023/08/28 09:51:50;;;;;;;1.92;0.70;;;;;;;22.51;83.09;101286.09;5043797;28;20027;-62
2023/08/28 09:54:16;;;;;;;1.77;1.13;;;;;;;22.74;80.91;101275.41;5044308;28;20028;-61
2023/08/28 09:56:42;;;;;;;1.52;0.73;;;;;;;22.67;85.40;101283.94;5038744;28;20029;-61
2023/08/28 09:59:10;;;;;;;0.70;0.70;;;;;;;22.43;86.15;101286.69;5033936;28;20026;-61
2023/08/28 10:01:36;;;;;;;3.55;0.95;;;;;;;22.12;87.34;101284.53;5034170;28;20025;-59
2023/08/28 10:04:05;;;;;;;1.73;0.88;;;;;;;22.00;91.11;101288.16;5045912;28;20379;-65
2023/08/28 10:06:33;;;;;;;1.08;1.02;;;;;;;21.61;93.77;101289.16;5044629;28;20375;-61
2023/08/28 10:09:00;;;;;;;1.13;1.00;;;;;;;21.26;96.38;101288.13;5028326;28;20366;-61
2023/08/28 10:11:36;;;;;;;1.38;0.93;;;;;;;21.02;98.19;101290.72;5028518;28;20052;-62
2023/08/28 10:14:03;;;;;;;4.97;1.35;;;;;;;20.84;100.00;101293.72;5052792;28;20110;-62
2023/08/28 10:16:30;;;;;;;2.63;1.30;;;;;;;20.74;100.00;101277.44;5046184;28;20075;-60
2023/08/28 10:19:14;;;;;;;1.73;0.98;;;;;;;20.64;100.00;101282.59;5028139;28;20031;-61
2023/08/28 10:21:40;;;;;;;3.70;1.20;;;;;;;20.89;100.00;101280.84;5026892;28;20032;-60
2023/08/28 10:24:07;;;;;;;2.72;1.25;;;;;;;21.06;94.93;101286.84;5055508;28;20033;-60
2023/08/28 10:26:34;;;;;;;2.05;0.80;;;;;;;21.43;92.07;101276.16;5049984;28;20025;-60
2023/08/28 10:28:59;;;;;;;4.40;1.15;;;;;;;21.36;92.79;101282.94;5049166;28;20487;-61
2023/08/28 10:31:27;;;;;;;2.05;1.00;;;;;;;21.24;95.97;101276.66;5032033;28;20036;-60
2023/08/28 10:33:53;;;;;;;2.17;1.00;;;;;;;21.85;87.12;101291.00;5031262;28;20056;-60
2023/08/28 10:36:20;;;;;;;3.25;0.70;;;;;;;22.30;78.73;101289.44;5048917;28;20098;-58
2023/08/28 10:38:46;;;;;;;1.63;0.73;;;;;;;22.31;79.25;101277.75;5049825;28;20071;-60
2023/08/28 10:41:12;;;;;;;1.38;1.00;;;;;;;22.78;76.73;101283.09;5031430;28;20502;-59
2023/08/28 10:43:38;;;;;;;2.38;1.10;;;;;;;22.90;77.67;101281.25;5032523;28;20121;-60
2023/08/28 10:46:03;;;;;;;2.17;1.00;;;;;;;22.63;80.29;101282.47;5031139;28;20384;-61
2023/08/28 10:48:29;;;;;;;1.60;0.90;;;;;;;23.36;78.86;101283.91;5032384;28;20071;-61
2023/08/28 10:50:58;;;;;;;1.77;0.85;;;;;;;23.45;78.04;101283.16;5048250;28;20032;-60
2023/08/28 10:53:23;;;;;;;1.35;0.80;;;;;;;23.07;79.04;101287.97;5070362;28;20029;-61
2023/08/28 10:55:54;;;;;;;1.17;0.70;;;;;;;22.83;77.07;101296.16;5069956;28;20485;-62
2023/08/28 10:58:21;;;;;;;0.95;0.50;;;;;;;22.41;79.60;101288.63;5051058;28;20033;-62
2023/08/28 11:00:46;;;;;;;2.60;0.73;;;;;;;21.77;84.90;101290.75;5050190;28;20083;-61
2023/08/28 11:03:15;;;;;;;2.35;0.90;;;;;;;21.66;85.88;101294.19;5051158;28;20483;-61
2023/08/28 11:05:41;;;;;;;1.63;1.25;;;;;;;21.62;86.33;101298.94;5049142;28;20025;-62
2023/08/28 11:08:08;;;;;;;1.20;0.85;;;;;;;21.37;89.70;101298.03;5050574;28;20083;-61
2023/08/28 11:10:35;;;;;;;1.73;1.00;;;;;;;21.23;91.51;101301.75;5047334;28;20041;-61
2023/08/28 11:13:08;;;;;;;2.88;1.00;;;;;;;21.15;94.13;101296.06;5063762;28;20126;-60
2023/08/28 11:15:41;;;;;;;1.88;0.65;;;;;;;21.30;89.23;101294.97;5068898;28;20479;-62